Time,TemperatureF,DewpointF,PressureIn,WindDirection,WindDirectionDegrees,WindSpeedMPH,WindSpeedGustMPH,Humidity,HourlyPrecipIn,Conditions,Clouds,dailyrainin,SoftwareType,DateUTC
2013-05-27 00:02:00,50.5,42.2,30.10,WNW,292,0.0,-999.0,73,-99.99,,,0.00,Acu-Link.com,2013-05-27 04:02:00,
2013-05-27 00:17:00,49.6,41.7,30.09,SSE,157,0.0,-999.0,74,-99.99,,,0.00,Acu-Link.com,2013-05-27 04:17:00,
2013-05-27 00:32:00,48.9,41.7,30.11,South,180,0.0,-999.0,76,-99.99,,,0.00,Acu-Link.com,2013-05-27 04:32:00,
2013-05-27 00:47:00,48.0,41.8,30.10,WNW,292,0.0,-999.0,79,-99.99,,,0.00,Acu-Link.com,2013-05-27 04:47:00,
2013-05-27 01:02:00,47.7,42.8,30.10,WSW,247,0.0,-999.0,83,-99.99,,,0.00,Acu-Link.com,2013-05-27 05:02:00,
2013-05-27 01:18:00,47.1,42.2,30.11,SE,135,0.0,-999.0,83,-99.99,,,0.00,Acu-Link.com,2013-05-27 05:18:00,
2013-05-27 01:33:00,46.8,42.5,30.11,WSW,247,0.0,-999.0,85,-99.99,,,0.00,Acu-Link.com,2013-05-27 05:33:00,
2013-05-27 01:48:00,46.0,42.1,30.11,SSE,157,0.0,-999.0,86,-99.99,,,0.00,Acu-Link.com,2013-05-27 05:48:00,
2013-05-27 02:03:00,45.5,42.4,30.11,West,270,0.0,-999.0,89,-99.99,,,0.00,Acu-Link.com,2013-05-27 06:03:00,
2013-05-27 02:18:00,45.0,42.5,30.11,West,270,0.0,-999.0,91,-99.99,,,0.00,Acu-Link.com,2013-05-27 06:18:00,
2013-05-27 02:33:00,44.4,41.7,30.11,SW,225,0.0,-999.0,90,-99.99,,,0.00,Acu-Link.com,2013-05-27 06:33:00,
2013-05-27 02:48:00,43.7,42.4,30.12,WNW,292,0.0,-999.0,95,-99.99,,,0.00,Acu-Link.com,2013-05-27 06:48:00,
2013-05-27 03:03:00,43.3,42.0,30.11,South,180,0.0,-999.0,95,-99.99,,,0.00,Acu-Link.com,2013-05-27 07:03:00,
2013-05-27 03:18:00,43.3,42.5,30.12,WNW,292,0.0,-999.0,97,-99.99,,,0.00,Acu-Link.com,2013-05-27 07:18:00,
2013-05-27 03:34:00,43.5,42.4,30.11,South,180,0.0,-999.0,96,-99.99,,,0.00,Acu-Link.com,2013-05-27 07:34:00,
2013-05-27 03:49:00,43.3,42.5,30.11,SSW,202,1.1,-999.0,97,-99.99,,,0.00,Acu-Link.com,2013-05-27 07:49:00,
2013-05-27 04:04:00,42.8,42.0,30.11,SE,135,0.0,-999.0,97,-99.99,,,0.00,Acu-Link.com,2013-05-27 08:04:00,
2013-05-27 04:20:00,42.8,42.0,30.12,SSE,157,0.0,-999.0,97,-99.99,,,0.00,Acu-Link.com,2013-05-27 08:20:00,
2013-05-27 04:35:00,42.4,41.9,30.10,WNW,292,0.0,-999.0,98,-99.99,,,0.00,Acu-Link.com,2013-05-27 08:35:00,
2013-05-27 04:50:00,42.6,42.3,30.11,West,270,0.0,-999.0,99,-99.99,,,0.00,Acu-Link.com,2013-05-27 08:50:00,
2013-05-27 05:05:00,42.6,42.3,30.13,WNW,292,0.0,-999.0,99,-99.99,,,0.00,Acu-Link.com,2013-05-27 09:05:00,
2013-05-27 05:20:00,43.5,42.7,30.12,WSW,247,1.7,-999.0,97,-99.99,,,0.00,Acu-Link.com,2013-05-27 09:20:00,
2013-05-27 05:35:00,42.4,41.6,30.12,WNW,292,0.0,-999.0,97,-99.99,,,0.00,Acu-Link.com,2013-05-27 09:35:00,
2013-05-27 05:50:00,41.9,41.4,30.12,WSW,247,0.0,-999.0,98,-99.99,,,0.00,Acu-Link.com,2013-05-27 09:50:00,
2013-05-27 06:06:00,41.9,41.4,30.12,SSE,157,0.0,-999.0,98,-99.99,,,0.00,Acu-Link.com,2013-05-27 10:06:00,
2013-05-27 06:21:00,41.7,41.4,30.13,West,270,1.1,-999.0,99,-99.99,,,0.00,Acu-Link.com,2013-05-27 10:21:00,
2013-05-27 06:36:00,42.6,42.3,30.13,West,270,0.0,-999.0,99,-99.99,,,0.00,Acu-Link.com,2013-05-27 10:36:00,
2013-05-27 06:51:00,43.3,42.8,30.13,SW,225,0.0,-999.0,98,-99.99,,,0.00,Acu-Link.com,2013-05-27 10:51:00,
2013-05-27 07:06:00,46.2,44.6,30.14,SSE,157,1.1,-999.0,94,-99.99,,,0.00,Acu-Link.com,2013-05-27 11:06:00,
2013-05-27 07:21:00,48.0,44.9,30.15,ESE,112,2.2,-999.0,89,-99.99,,,0.00,Acu-Link.com,2013-05-27 11:21:00,
2013-05-27 07:36:00,52.9,45.9,30.15,ESE,112,1.7,-999.0,77,-99.99,,,0.00,Acu-Link.com,2013-05-27 11:36:00,
2013-05-27 07:51:00,55.9,47.7,30.15,SE,135,2.2,-999.0,74,-99.99,,,0.00,Acu-Link.com,2013-05-27 11:51:00,
2013-05-27 08:06:00,59.0,48.1,30.16,South,180,1.7,-999.0,67,-99.99,,,0.00,Acu-Link.com,2013-05-27 12:06:00,
2013-05-27 08:22:00,60.8,48.5,30.16,ESE,112,2.2,-999.0,64,-99.99,,,0.00,Acu-Link.com,2013-05-27 12:22:00,
2013-05-27 08:37:00,62.2,49.0,30.16,SE,135,2.2,-999.0,62,-99.99,,,0.00,Acu-Link.com,2013-05-27 12:37:00,
2013-05-27 08:52:00,63.0,48.9,30.15,ESE,112,3.7,-999.0,60,-99.99,,,0.00,Acu-Link.com,2013-05-27 12:52:00,
2013-05-27 09:07:00,63.7,49.6,30.15,ESE,112,2.7,-999.0,60,-99.99,,,0.00,Acu-Link.com,2013-05-27 13:07:00,
2013-05-27 09:22:00,64.6,48.5,30.15,East,90,2.2,-999.0,56,-99.99,,,0.00,Acu-Link.com,2013-05-27 13:22:00,
2013-05-27 09:37:00,66.2,48.6,30.15,West,270,0.0,-999.0,53,-99.99,,,0.00,Acu-Link.com,2013-05-27 13:37:00,
2013-05-27 09:52:00,65.8,47.7,30.16,WSW,247,2.2,-999.0,52,-99.99,,,0.00,Acu-Link.com,2013-05-27 13:52:00,
2013-05-27 10:07:00,63.9,47.9,30.15,West,270,1.7,-999.0,56,-99.99,,,0.00,Acu-Link.com,2013-05-27 14:07:00,
2013-05-27 10:22:00,64.6,48.1,30.15,ESE,112,2.2,-999.0,55,-99.99,,,0.00,Acu-Link.com,2013-05-27 14:22:00,
2013-05-27 10:38:00,65.7,48.1,30.15,SSW,202,1.7,-999.0,53,-99.99,,,0.00,Acu-Link.com,2013-05-27 14:38:00,
2013-05-27 10:53:00,66.6,48.4,30.14,ENE,67,1.7,-999.0,52,-99.99,,,0.00,Acu-Link.com,2013-05-27 14:53:00,
2013-05-27 11:08:00,68.0,47.6,30.13,ESE,112,4.2,-999.0,48,-99.99,,,0.00,Acu-Link.com,2013-05-27 15:08:00,
2013-05-27 11:23:00,66.9,47.1,30.13,North,0,3.7,-999.0,49,-99.99,,,0.00,Acu-Link.com,2013-05-27 15:23:00,
2013-05-27 11:38:00,66.9,48.2,30.13,SW,225,1.7,-999.0,51,-99.99,,,0.00,Acu-Link.com,2013-05-27 15:38:00,
2013-05-27 11:53:00,67.1,47.3,30.13,WSW,247,1.1,-999.0,49,-99.99,,,0.00,Acu-Link.com,2013-05-27 15:53:00,
2013-05-27 12:08:00,67.6,48.8,30.13,ESE,112,1.7,-999.0,51,-99.99,,,0.00,Acu-Link.com,2013-05-27 16:08:00,
2013-05-27 12:23:00,67.3,47.5,30.12,East,90,2.2,-999.0,49,-99.99,,,0.00,Acu-Link.com,2013-05-27 16:23:00,
2013-05-27 12:38:00,67.6,48.3,30.12,NE,45,1.7,-999.0,50,-99.99,,,0.00,Acu-Link.com,2013-05-27 16:38:00,
2013-05-27 12:54:00,67.1,47.8,30.11,NNE,22,0.0,-999.0,50,-99.99,,,0.00,Acu-Link.com,2013-05-27 16:54:00,
2013-05-27 13:09:00,67.1,47.8,30.11,WNW,292,1.1,-999.0,50,-99.99,,,0.00,Acu-Link.com,2013-05-27 17:09:00,
2013-05-27 13:24:00,67.6,48.8,30.11,SW,225,1.7,-999.0,51,-99.99,,,0.00,Acu-Link.com,2013-05-27 17:24:00,
2013-05-27 13:39:00,68.0,49.2,30.10,SW,225,1.1,-999.0,51,-99.99,,,0.00,Acu-Link.com,2013-05-27 17:39:00,
2013-05-27 13:54:00,68.0,46.4,30.11,West,270,1.1,-999.0,46,-99.99,,,0.00,Acu-Link.com,2013-05-27 17:54:00,
2013-05-27 14:09:00,68.5,46.9,30.11,WSW,247,0.0,-999.0,46,-99.99,,,0.00,Acu-Link.com,2013-05-27 18:09:00,
2013-05-27 14:24:00,68.0,46.4,30.10,West,270,1.7,-999.0,46,-99.99,,,0.00,Acu-Link.com,2013-05-27 18:24:00,
2013-05-27 14:39:00,68.4,48.5,30.09,ENE,67,0.0,-999.0,49,-99.99,,,0.00,Acu-Link.com,2013-05-27 18:39:00,
2013-05-27 14:54:00,69.4,46.5,30.09,North,0,1.7,-999.0,44,-99.99,,,0.00,Acu-Link.com,2013-05-27 18:54:00,
2013-05-27 15:10:00,69.8,48.1,30.08,SSE,157,1.1,-999.0,46,-99.99,,,0.00,Acu-Link.com,2013-05-27 19:10:00,
2013-05-27 15:25:00,69.4,47.1,30.07,SSE,157,0.0,-999.0,45,-99.99,,,0.00,Acu-Link.com,2013-05-27 19:25:00,
2013-05-27 15:40:00,69.1,49.1,30.07,South,180,1.1,-999.0,49,-99.99,,,0.00,Acu-Link.com,2013-05-27 19:40:00,
2013-05-27 15:55:00,69.4,49.4,30.07,WSW,247,0.0,-999.0,49,-99.99,,,0.00,Acu-Link.com,2013-05-27 19:55:00,
2013-05-27 16:10:00,69.6,49.0,30.07,SW,225,4.2,-999.0,48,-99.99,,,0.00,Acu-Link.com,2013-05-27 20:10:00,
2013-05-27 16:25:00,69.1,49.7,30.08,ESE,112,1.7,-999.0,50,-99.99,,,0.00,Acu-Link.com,2013-05-27 20:25:00,
2013-05-27 16:40:00,68.2,49.9,30.06,SW,225,1.1,-999.0,52,-99.99,,,0.00,Acu-Link.com,2013-05-27 20:40:00,
2013-05-27 16:55:00,66.9,49.7,30.05,SSW,202,1.1,-999.0,54,-99.99,,,0.00,Acu-Link.com,2013-05-27 20:55:00,
2013-05-27 17:10:00,66.7,50.5,30.05,SSE,157,0.0,-999.0,56,-99.99,,,0.00,Acu-Link.com,2013-05-27 21:10:00,
2013-05-27 17:25:00,65.7,51.0,30.05,South,180,0.0,-999.0,59,-99.99,,,0.00,Acu-Link.com,2013-05-27 21:25:00,
2013-05-27 17:41:00,65.5,51.2,30.06,WSW,247,0.0,-999.0,60,-99.99,,,0.00,Acu-Link.com,2013-05-27 21:41:00,
2013-05-27 17:56:00,64.8,53.2,30.06,WSW,247,1.1,-999.0,66,-99.99,,,0.00,Acu-Link.com,2013-05-27 21:56:00,
2013-05-27 18:11:00,63.3,54.1,30.05,WSW,247,0.0,-999.0,72,-99.99,,,0.00,Acu-Link.com,2013-05-27 22:11:00,
2013-05-27 18:26:00,63.5,53.5,30.04,West,270,0.0,-999.0,70,-99.99,,,0.00,Acu-Link.com,2013-05-27 22:26:00,
2013-05-27 18:41:00,63.9,53.9,30.05,West,270,1.7,-999.0,70,-99.99,,,0.00,Acu-Link.com,2013-05-27 22:41:00,
2013-05-27 18:56:00,63.9,52.7,30.04,WSW,247,0.0,-999.0,67,-99.99,,,0.00,Acu-Link.com,2013-05-27 22:56:00,
2013-05-27 19:11:00,64.2,52.6,30.04,South,180,0.0,-999.0,66,-99.99,,,0.00,Acu-Link.com,2013-05-27 23:11:00,
2013-05-27 19:26:00,63.1,53.2,30.05,West,270,0.0,-999.0,70,-99.99,,,0.00,Acu-Link.com,2013-05-27 23:26:00,
2013-05-27 19:41:00,63.3,54.1,30.04,NNW,337,0.0,-999.0,72,-99.99,,,0.00,Acu-Link.com,2013-05-27 23:41:00,
2013-05-27 19:57:00,61.5,53.9,30.04,WSW,247,0.0,-999.0,76,-99.99,,,0.00,Acu-Link.com,2013-05-27 23:57:00,
2013-05-27 20:12:00,61.3,53.3,30.06,SW,225,0.0,-999.0,75,-99.99,,,0.00,Acu-Link.com,2013-05-28 00:12:00,
2013-05-27 20:27:00,61.0,53.0,30.05,NW,315,0.0,-999.0,75,-99.99,,,0.00,Acu-Link.com,2013-05-28 00:27:00,
2013-05-27 20:42:00,59.9,53.0,30.04,WSW,247,0.0,-999.0,78,-99.99,,,0.00,Acu-Link.com,2013-05-28 00:42:00,
2013-05-27 20:57:00,59.4,52.9,30.04,West,270,0.0,-999.0,79,-99.99,,,0.00,Acu-Link.com,2013-05-28 00:57:00,
2013-05-27 21:12:00,58.5,53.0,30.05,NW,315,0.0,-999.0,82,-99.99,,,0.00,Acu-Link.com,2013-05-28 01:12:00,
2013-05-27 21:27:00,57.7,52.9,30.04,WSW,247,0.0,-999.0,84,-99.99,,,0.00,Acu-Link.com,2013-05-28 01:27:00,
2013-05-27 21:42:00,57.6,53.4,30.05,SW,225,0.0,-999.0,86,-99.99,,,0.00,Acu-Link.com,2013-05-28 01:42:00,
2013-05-27 21:57:00,57.2,53.0,30.05,SW,225,0.0,-999.0,86,-99.99,,,0.00,Acu-Link.com,2013-05-28 01:57:00,
2013-05-27 22:13:00,56.8,53.0,30.05,NW,315,0.0,-999.0,87,-99.99,,,0.00,Acu-Link.com,2013-05-28 02:13:00,
2013-05-27 22:28:00,56.8,53.0,30.06,SSW,202,0.0,-999.0,87,-99.99,,,0.00,Acu-Link.com,2013-05-28 02:28:00,
2013-05-27 22:43:00,56.8,53.3,30.06,WSW,247,0.0,-999.0,88,-99.99,,,0.00,Acu-Link.com,2013-05-28 02:43:00,
2013-05-27 22:58:00,56.7,52.9,30.05,SSE,157,0.0,-999.0,87,-99.99,,,0.00,Acu-Link.com,2013-05-28 02:58:00,
2013-05-27 23:13:00,56.1,52.9,30.06,NNW,337,0.0,-999.0,89,-99.99,,,0.00,Acu-Link.com,2013-05-28 03:13:00,
2013-05-27 23:28:00,55.6,52.7,30.05,SSW,202,0.0,-999.0,90,-99.99,,,0.00,Acu-Link.com,2013-05-28 03:28:00,
2013-05-27 23:43:00,55.0,52.4,30.04,SSW,202,0.0,-999.0,91,-99.99,,,0.00,Acu-Link.com,2013-05-28 03:43:00,
2013-05-27 23:58:00,55.0,53.0,30.04,WSW,247,0.0,-999.0,93,-99.99,,,0.00,Acu-Link.com,2013-05-28 03:58:00,